sensor_id;sensor_type;location;lat;lon;timestamp;P1;durP1;ratioP1;P2;durP2;ratioP2
42296;SDS011;28985;47.456;19.016;2022-10-16T00:01:21;270.70;;;259.95;;
42296;SDS011;28985;47.456;19.016;2022-10-16T00:03:50;272.98;;;262.40;;
42296;SDS011;28985;47.456;19.016;2022-10-16T00:06:18;267.25;;;257.20;;
42296;SDS011;28985;47.456;19.016;2022-10-16T00:08:47;273.52;;;263.02;;
42296;SDS011;28985;47.456;19.016;2022-10-16T00:11:17;264.65;;;254.60;;
42296;SDS011;28985;47.456;19.016;2022-10-16T00:13:44;270.73;;;260.20;;
42296;SDS011;28985;47.456;19.016;2022-10-16T00:16:12;266.17;;;255.82;;
42296;SDS011;28985;47.456;19.016;2022-10-16T00:18:41;186.15;;;179.00;;
42296;SDS011;28985;47.456;19.016;2022-10-16T00:21:25;203.30;;;195.63;;
42296;SDS011;28985;47.456;19.016;2022-10-16T00:23:55;176.30;;;169.43;;
42296;SDS011;28985;47.456;19.016;2022-10-16T00:26:31;196.98;;;189.50;;
42296;SDS011;28985;47.456;19.016;2022-10-16T00:28:59;198.88;;;191.13;;
42296;SDS011;28985;47.456;19.016;2022-10-16T00:31:25;222.65;;;214.27;;
42296;SDS011;28985;47.456;19.016;2022-10-16T00:33:53;209.48;;;201.40;;
42296;SDS011;28985;47.456;19.016;2022-10-16T00:36:21;224.20;;;215.70;;
42296;SDS011;28985;47.456;19.016;2022-10-16T00:38:50;235.48;;;226.30;;
42296;SDS011;28985;47.456;19.016;2022-10-16T00:41:22;237.98;;;229.05;;
42296;SDS011;28985;47.456;19.016;2022-10-16T00:43:57;239.07;;;230.00;;
42296;SDS011;28985;47.456;19.016;2022-10-16T00:49:09;227.80;;;218.50;;
42296;SDS011;28985;47.456;19.016;2022-10-16T00:51:45;219.73;;;211.40;;
42296;SDS011;28985;47.456;19.016;2022-10-16T00:54:23;218.95;;;210.73;;
42296;SDS011;28985;47.456;19.016;2022-10-16T00:56:52;233.15;;;224.20;;
42296;SDS011;28985;47.456;19.016;2022-10-16T00:59:23;235.63;;;226.65;;
42296;SDS011;28985;47.456;19.016;2022-10-16T01:01:52;237.07;;;227.98;;
42296;SDS011;28985;47.456;19.016;2022-10-16T01:04:20;250.23;;;240.63;;
42296;SDS011;28985;47.456;19.016;2022-10-16T01:09:59;213.30;;;205.32;;
42296;SDS011;28985;47.456;19.016;2022-10-16T01:20:51;210.32;;;202.40;;
42296;SDS011;28985;47.456;19.016;2022-10-16T01:23:28;195.30;;;187.65;;
42296;SDS011;28985;47.456;19.016;2022-10-16T01:26:15;186.07;;;179.05;;
42296;SDS011;28985;47.456;19.016;2022-10-16T01:31:44;165.82;;;159.48;;
42296;SDS011;28985;47.456;19.016;2022-10-16T01:34:38;165.68;;;159.20;;
42296;SDS011;28985;47.456;19.016;2022-10-16T01:37:09;159.32;;;153.18;;
42296;SDS011;28985;47.456;19.016;2022-10-16T01:39:41;153.18;;;147.32;;
42296;SDS011;28985;47.456;19.016;2022-10-16T01:42:16;152.90;;;147.00;;
42296;SDS011;28985;47.456;19.016;2022-10-16T01:44:47;138.02;;;132.50;;
42296;SDS011;28985;47.456;19.016;2022-10-16T01:47:15;126.22;;;121.47;;
42296;SDS011;28985;47.456;19.016;2022-10-16T01:49:43;116.47;;;111.97;;
42296;SDS011;28985;47.456;19.016;2022-10-16T01:52:13;114.18;;;109.85;;
42296;SDS011;28985;47.456;19.016;2022-10-16T01:54:45;103.15;;;99.05;;
42296;SDS011;28985;47.456;19.016;2022-10-16T01:57:14;102.00;;;97.95;;
42296;SDS011;28985;47.456;19.016;2022-10-16T01:59:44;91.95;;;88.35;;
42296;SDS011;28985;47.456;19.016;2022-10-16T02:02:13;85.15;;;81.80;;
42296;SDS011;28985;47.456;19.016;2022-10-16T02:04:45;81.05;;;77.85;;
42296;SDS011;28985;47.456;19.016;2022-10-16T02:07:15;74.13;;;71.13;;
42296;SDS011;28985;47.456;19.016;2022-10-16T02:09:42;74.45;;;71.55;;
42296;SDS011;28985;47.456;19.016;2022-10-16T02:12:22;72.45;;;69.32;;
42296;SDS011;28985;47.456;19.016;2022-10-16T02:14:53;69.97;;;67.30;;
42296;SDS011;28985;47.456;19.016;2022-10-16T02:17:20;74.22;;;71.25;;
42296;SDS011;28985;47.456;19.016;2022-10-16T02:19:47;79.63;;;76.13;;
42296;SDS011;28985;47.456;19.016;2022-10-16T02:27:47;93.65;;;90.07;;
42296;SDS011;28985;47.456;19.016;2022-10-16T02:32:48;128.52;;;123.65;;
42296;SDS011;28985;47.456;19.016;2022-10-16T02:35:16;126.63;;;121.88;;
42296;SDS011;28985;47.456;19.016;2022-10-16T02:37:44;129.45;;;124.20;;
42296;SDS011;28985;47.456;19.016;2022-10-16T02:40:13;136.68;;;131.45;;
42296;SDS011;28985;47.456;19.016;2022-10-16T02:42:40;140.65;;;135.23;;
42296;SDS011;28985;47.456;19.016;2022-10-16T02:45:08;167.38;;;160.98;;
42296;SDS011;28985;47.456;19.016;2022-10-16T02:47:37;170.85;;;164.20;;
42296;SDS011;28985;47.456;19.016;2022-10-16T02:50:04;170.77;;;164.10;;
42296;SDS011;28985;47.456;19.016;2022-10-16T02:52:31;174.05;;;167.43;;
42296;SDS011;28985;47.456;19.016;2022-10-16T02:54:57;176.57;;;169.68;;
42296;SDS011;28985;47.456;19.016;2022-10-16T02:57:24;183.32;;;176.23;;
42296;SDS011;28985;47.456;19.016;2022-10-16T02:59:51;189.23;;;181.82;;
42296;SDS011;28985;47.456;19.016;2022-10-16T03:02:18;193.05;;;185.82;;
42296;SDS011;28985;47.456;19.016;2022-10-16T03:04:44;191.85;;;184.50;;
42296;SDS011;28985;47.456;19.016;2022-10-16T03:07:11;198.35;;;190.70;;
42296;SDS011;28985;47.456;19.016;2022-10-16T03:09:37;204.35;;;196.70;;
42296;SDS011;28985;47.456;19.016;2022-10-16T03:12:04;204.27;;;196.50;;
42296;SDS011;28985;47.456;19.016;2022-10-16T03:14:31;207.13;;;199.40;;
42296;SDS011;28985;47.456;19.016;2022-10-16T03:16:57;223.32;;;214.75;;
42296;SDS011;28985;47.456;19.016;2022-10-16T03:19:24;218.98;;;210.52;;
42296;SDS011;28985;47.456;19.016;2022-10-16T03:21:50;216.80;;;208.65;;
42296;SDS011;28985;47.456;19.016;2022-10-16T03:24:17;215.50;;;207.40;;
42296;SDS011;28985;47.456;19.016;2022-10-16T03:26:43;211.70;;;203.73;;
42296;SDS011;28985;47.456;19.016;2022-10-16T03:29:10;211.77;;;203.57;;
42296;SDS011;28985;47.456;19.016;2022-10-16T03:31:36;207.48;;;199.70;;
42296;SDS011;28985;47.456;19.016;2022-10-16T03:34:03;205.02;;;197.27;;
42296;SDS011;28985;47.456;19.016;2022-10-16T03:36:29;207.10;;;199.27;;
42296;SDS011;28985;47.456;19.016;2022-10-16T03:38:56;203.52;;;195.82;;
42296;SDS011;28985;47.456;19.016;2022-10-16T03:41:22;206.30;;;198.40;;
42296;SDS011;28985;47.456;19.016;2022-10-16T03:43:49;203.80;;;195.95;;
42296;SDS011;28985;47.456;19.016;2022-10-16T03:46:15;198.02;;;190.50;;
42296;SDS011;28985;47.456;19.016;2022-10-16T03:48:42;199.73;;;192.07;;
42296;SDS011;28985;47.456;19.016;2022-10-16T03:51:09;195.75;;;188.43;;
42296;SDS011;28985;47.456;19.016;2022-10-16T03:53:35;195.95;;;188.25;;
42296;SDS011;28985;47.456;19.016;2022-10-16T03:56:02;195.95;;;188.30;;
42296;SDS011;28985;47.456;19.016;2022-10-16T03:58:28;191.50;;;184.05;;
42296;SDS011;28985;47.456;19.016;2022-10-16T04:00:55;190.23;;;182.88;;
42296;SDS011;28985;47.456;19.016;2022-10-16T04:03:21;184.32;;;177.35;;
42296;SDS011;28985;47.456;19.016;2022-10-16T04:05:49;182.73;;;175.38;;
42296;SDS011;28985;47.456;19.016;2022-10-16T04:08:16;188.50;;;181.30;;
42296;SDS011;28985;47.456;19.016;2022-10-16T04:10:42;179.75;;;172.82;;
42296;SDS011;28985;47.456;19.016;2022-10-16T04:13:10;172.95;;;166.32;;
42296;SDS011;28985;47.456;19.016;2022-10-16T04:15:37;165.48;;;158.93;;
42296;SDS011;28985;47.456;19.016;2022-10-16T04:18:04;165.82;;;159.13;;
42296;SDS011;28985;47.456;19.016;2022-10-16T04:20:32;168.45;;;162.02;;
42296;SDS011;28985;47.456;19.016;2022-10-16T04:22:59;163.98;;;157.73;;
42296;SDS011;28985;47.456;19.016;2022-10-16T04:25:25;165.45;;;159.00;;
42296;SDS011;28985;47.456;19.016;2022-10-16T04:27:52;158.88;;;152.88;;
42296;SDS011;28985;47.456;19.016;2022-10-16T04:30:20;165.05;;;158.77;;
42296;SDS011;28985;47.456;19.016;2022-10-16T04:32:50;159.68;;;153.48;;
42296;SDS011;28985;47.456;19.016;2022-10-16T04:35:18;161.88;;;155.65;;
42296;SDS011;28985;47.456;19.016;2022-10-16T04:37:45;159.80;;;153.68;;
42296;SDS011;28985;47.456;19.016;2022-10-16T04:40:12;151.13;;;145.27;;
42296;SDS011;28985;47.456;19.016;2022-10-16T04:42:39;144.98;;;139.27;;
42296;SDS011;28985;47.456;19.016;2022-10-16T04:45:06;151.30;;;145.50;;
42296;SDS011;28985;47.456;19.016;2022-10-16T04:47:40;142.85;;;137.38;;
42296;SDS011;28985;47.456;19.016;2022-10-16T04:50:07;146.23;;;140.43;;
42296;SDS011;28985;47.456;19.016;2022-10-16T04:52:34;145.43;;;139.73;;
42296;SDS011;28985;47.456;19.016;2022-10-16T04:55:05;150.65;;;144.65;;
42296;SDS011;28985;47.456;19.016;2022-10-16T04:57:32;153.68;;;147.77;;
42296;SDS011;28985;47.456;19.016;2022-10-16T04:59:59;150.30;;;144.50;;
42296;SDS011;28985;47.456;19.016;2022-10-16T05:02:26;151.80;;;145.90;;
42296;SDS011;28985;47.456;19.016;2022-10-16T05:04:52;147.65;;;141.98;;
42296;SDS011;28985;47.456;19.016;2022-10-16T05:07:19;148.65;;;142.90;;
42296;SDS011;28985;47.456;19.016;2022-10-16T05:09:46;146.55;;;140.90;;
42296;SDS011;28985;47.456;19.016;2022-10-16T05:12:12;145.25;;;139.55;;
42296;SDS011;28985;47.456;19.016;2022-10-16T05:14:39;149.98;;;144.18;;
42296;SDS011;28985;47.456;19.016;2022-10-16T05:17:05;151.45;;;145.65;;
42296;SDS011;28985;47.456;19.016;2022-10-16T05:19:32;150.15;;;144.35;;
42296;SDS011;28985;47.456;19.016;2022-10-16T05:21:58;151.75;;;145.95;;
42296;SDS011;28985;47.456;19.016;2022-10-16T05:24:25;151.75;;;146.00;;
42296;SDS011;28985;47.456;19.016;2022-10-16T05:26:52;147.65;;;141.75;;
42296;SDS011;28985;47.456;19.016;2022-10-16T05:29:19;147.77;;;142.07;;
42296;SDS011;28985;47.456;19.016;2022-10-16T05:31:45;146.15;;;140.40;;
42296;SDS011;28985;47.456;19.016;2022-10-16T05:34:12;152.27;;;146.43;;
42296;SDS011;28985;47.456;19.016;2022-10-16T05:36:38;156.82;;;150.82;;
42296;SDS011;28985;47.456;19.016;2022-10-16T05:39:05;154.88;;;148.85;;
42296;SDS011;28985;47.456;19.016;2022-10-16T05:41:31;157.55;;;151.50;;
42296;SDS011;28985;47.456;19.016;2022-10-16T05:43:58;155.45;;;149.45;;
42296;SDS011;28985;47.456;19.016;2022-10-16T05:46:24;162.32;;;156.05;;
42296;SDS011;28985;47.456;19.016;2022-10-16T05:48:51;181.25;;;174.15;;
42296;SDS011;28985;47.456;19.016;2022-10-16T05:51:19;164.70;;;158.38;;
42296;SDS011;28985;47.456;19.016;2022-10-16T05:53:45;174.20;;;167.20;;
42296;SDS011;28985;47.456;19.016;2022-10-16T05:56:12;163.23;;;157.07;;
42296;SDS011;28985;47.456;19.016;2022-10-16T05:58:39;161.48;;;155.25;;
42296;SDS011;28985;47.456;19.016;2022-10-16T06:01:14;156.13;;;150.15;;
42296;SDS011;28985;47.456;19.016;2022-10-16T06:03:43;162.07;;;155.23;;
42296;SDS011;28985;47.456;19.016;2022-10-16T06:06:11;152.27;;;146.10;;
42296;SDS011;28985;47.456;19.016;2022-10-16T06:08:39;144.77;;;138.88;;
42296;SDS011;28985;47.456;19.016;2022-10-16T06:11:08;158.02;;;151.45;;
42296;SDS011;28985;47.456;19.016;2022-10-16T06:13:36;156.20;;;149.90;;
42296;SDS011;28985;47.456;19.016;2022-10-16T06:16:05;166.02;;;159.43;;
42296;SDS011;28985;47.456;19.016;2022-10-16T06:18:32;167.00;;;160.25;;
42296;SDS011;28985;47.456;19.016;2022-10-16T06:20:58;172.63;;;165.65;;
42296;SDS011;28985;47.456;19.016;2022-10-16T06:23:27;182.13;;;175.05;;
42296;SDS011;28985;47.456;19.016;2022-10-16T06:25:54;185.27;;;177.77;;
42296;SDS011;28985;47.456;19.016;2022-10-16T06:28:30;194.48;;;186.45;;
42296;SDS011;28985;47.456;19.016;2022-10-16T06:31:00;206.25;;;198.02;;
42296;SDS011;28985;47.456;19.016;2022-10-16T06:33:33;211.55;;;203.18;;
42296;SDS011;28985;47.456;19.016;2022-10-16T06:36:04;228.02;;;218.88;;
42296;SDS011;28985;47.456;19.016;2022-10-16T06:38:31;232.52;;;223.48;;
42296;SDS011;28985;47.456;19.016;2022-10-16T06:40:58;250.15;;;240.43;;
42296;SDS011;28985;47.456;19.016;2022-10-16T06:43:25;257.00;;;246.75;;
42296;SDS011;28985;47.456;19.016;2022-10-16T06:45:52;266.58;;;255.80;;
42296;SDS011;28985;47.456;19.016;2022-10-16T06:48:20;274.55;;;264.00;;
42296;SDS011;28985;47.456;19.016;2022-10-16T06:53:35;277.63;;;266.67;;
42296;SDS011;28985;47.456;19.016;2022-10-16T06:56:24;269.45;;;258.90;;
42296;SDS011;28985;47.456;19.016;2022-10-16T06:58:53;272.67;;;262.10;;
42296;SDS011;28985;47.456;19.016;2022-10-16T07:01:20;454.02;;;434.23;;
42296;SDS011;28985;47.456;19.016;2022-10-16T07:03:49;283.15;;;272.17;;
42296;SDS011;28985;47.456;19.016;2022-10-16T07:06:17;271.15;;;260.70;;
42296;SDS011;28985;47.456;19.016;2022-10-16T07:08:46;273.13;;;262.48;;
42296;SDS011;28985;47.456;19.016;2022-10-16T07:11:14;266.70;;;256.50;;
42296;SDS011;28985;47.456;19.016;2022-10-16T07:13:43;261.25;;;250.85;;
42296;SDS011;28985;47.456;19.016;2022-10-16T07:16:19;256.30;;;246.30;;
42296;SDS011;28985;47.456;19.016;2022-10-16T07:18:47;244.60;;;235.27;;
42296;SDS011;28985;47.456;19.016;2022-10-16T07:21:16;252.52;;;242.70;;
42296;SDS011;28985;47.456;19.016;2022-10-16T07:23:52;252.20;;;242.50;;
42296;SDS011;28985;47.456;19.016;2022-10-16T07:26:20;297.70;;;286.13;;
42296;SDS011;28985;47.456;19.016;2022-10-16T07:28:47;269.20;;;258.92;;
42296;SDS011;28985;47.456;19.016;2022-10-16T07:31:15;235.18;;;226.05;;
42296;SDS011;28985;47.456;19.016;2022-10-16T07:33:43;243.10;;;234.00;;
42296;SDS011;28985;47.456;19.016;2022-10-16T07:36:11;265.95;;;255.75;;
42296;SDS011;28985;47.456;19.016;2022-10-16T07:38:41;235.98;;;227.02;;
42296;SDS011;28985;47.456;19.016;2022-10-16T07:41:09;230.88;;;222.13;;
42296;SDS011;28985;47.456;19.016;2022-10-16T07:43:38;235.88;;;226.95;;
42296;SDS011;28985;47.456;19.016;2022-10-16T07:46:05;214.00;;;206.00;;
42296;SDS011;28985;47.456;19.016;2022-10-16T07:48:32;212.23;;;204.18;;
42296;SDS011;28985;47.456;19.016;2022-10-16T07:51:00;203.60;;;195.77;;
42296;SDS011;28985;47.456;19.016;2022-10-16T07:53:28;186.02;;;178.80;;
42296;SDS011;28985;47.456;19.016;2022-10-16T07:55:58;140.07;;;134.48;;
42296;SDS011;28985;47.456;19.016;2022-10-16T07:58:29;102.22;;;98.20;;
42296;SDS011;28985;47.456;19.016;2022-10-16T08:00:56;89.97;;;86.43;;
42296;SDS011;28985;47.456;19.016;2022-10-16T08:03:24;65.07;;;62.38;;
42296;SDS011;28985;47.456;19.016;2022-10-16T08:05:50;43.42;;;41.42;;
42296;SDS011;28985;47.456;19.016;2022-10-16T08:08:17;44.15;;;42.17;;
42296;SDS011;28985;47.456;19.016;2022-10-16T08:10:45;43.55;;;41.78;;
42296;SDS011;28985;47.456;19.016;2022-10-16T08:13:11;62.78;;;59.92;;
42296;SDS011;28985;47.456;19.016;2022-10-16T08:15:42;91.22;;;87.45;;
42296;SDS011;28985;47.456;19.016;2022-10-16T08:18:09;138.35;;;132.90;;
42296;SDS011;28985;47.456;19.016;2022-10-16T08:20:37;153.57;;;147.45;;
42296;SDS011;28985;47.456;19.016;2022-10-16T08:23:06;137.70;;;132.30;;
42296;SDS011;28985;47.456;19.016;2022-10-16T08:25:36;135.70;;;130.55;;
42296;SDS011;28985;47.456;19.016;2022-10-16T08:28:04;145.23;;;139.52;;
42296;SDS011;28985;47.456;19.016;2022-10-16T08:30:34;185.90;;;178.75;;
42296;SDS011;28985;47.456;19.016;2022-10-16T08:33:01;214.05;;;205.93;;
42296;SDS011;28985;47.456;19.016;2022-10-16T08:35:28;227.45;;;218.75;;
42296;SDS011;28985;47.456;19.016;2022-10-16T08:37:55;214.38;;;205.68;;
42296;SDS011;28985;47.456;19.016;2022-10-16T08:51:27;97.55;;;93.65;;
42296;SDS011;28985;47.456;19.016;2022-10-16T08:54:11;92.22;;;88.40;;
42296;SDS011;28985;47.456;19.016;2022-10-16T08:56:56;77.45;;;74.38;;
42296;SDS011;28985;47.456;19.016;2022-10-16T08:59:26;66.82;;;64.10;;
42296;SDS011;28985;47.456;19.016;2022-10-16T09:01:53;59.35;;;56.83;;
42296;SDS011;28985;47.456;19.016;2022-10-16T09:10:02;55.25;;;52.65;;
42296;SDS011;28985;47.456;19.016;2022-10-16T09:12:55;50.90;;;48.75;;
42296;SDS011;28985;47.456;19.016;2022-10-16T09:15:39;60.25;;;57.25;;
42296;SDS011;28985;47.456;19.016;2022-10-16T09:18:20;58.38;;;55.88;;
42296;SDS011;28985;47.456;19.016;2022-10-16T09:23:49;55.65;;;53.30;;
42296;SDS011;28985;47.456;19.016;2022-10-16T09:26:16;54.00;;;51.90;;
42296;SDS011;28985;47.456;19.016;2022-10-16T09:28:45;52.85;;;50.10;;
42296;SDS011;28985;47.456;19.016;2022-10-16T09:31:15;50.78;;;48.58;;
42296;SDS011;28985;47.456;19.016;2022-10-16T09:33:47;40.65;;;38.75;;
42296;SDS011;28985;47.456;19.016;2022-10-16T09:36:18;40.10;;;38.28;;
42296;SDS011;28985;47.456;19.016;2022-10-16T09:38:46;34.92;;;33.17;;
42296;SDS011;28985;47.456;19.016;2022-10-16T09:48:58;25.20;;;24.00;;
42296;SDS011;28985;47.456;19.016;2022-10-16T09:51:27;23.88;;;22.77;;
42296;SDS011;28985;47.456;19.016;2022-10-16T09:53:59;21.55;;;20.63;;
42296;SDS011;28985;47.456;19.016;2022-10-16T09:56:29;23.25;;;21.95;;
42296;SDS011;28985;47.456;19.016;2022-10-16T09:59:20;21.50;;;20.55;;
42296;SDS011;28985;47.456;19.016;2022-10-16T10:01:48;20.55;;;19.70;;
42296;SDS011;28985;47.456;19.016;2022-10-16T10:04:18;20.25;;;19.35;;
42296;SDS011;28985;47.456;19.016;2022-10-16T10:09:22;20.92;;;19.83;;
42296;SDS011;28985;47.456;19.016;2022-10-16T10:11:54;21.90;;;20.83;;
42296;SDS011;28985;47.456;19.016;2022-10-16T10:17:01;30.08;;;28.60;;
42296;SDS011;28985;47.456;19.016;2022-10-16T10:19:39;26.98;;;25.83;;
42296;SDS011;28985;47.456;19.016;2022-10-16T10:22:19;28.60;;;27.35;;
42296;SDS011;28985;47.456;19.016;2022-10-16T10:25:00;24.83;;;23.55;;
42296;SDS011;28985;47.456;19.016;2022-10-16T10:27:47;20.23;;;19.13;;
42296;SDS011;28985;47.456;19.016;2022-10-16T10:38:49;27.35;;;25.30;;
42296;SDS011;28985;47.456;19.016;2022-10-16T10:46:51;18.25;;;17.38;;
42296;SDS011;28985;47.456;19.016;2022-10-16T10:57:33;14.45;;;13.70;;
42296;SDS011;28985;47.456;19.016;2022-10-16T11:00:41;16.00;;;15.10;;
42296;SDS011;28985;47.456;19.016;2022-10-16T11:06:50;17.52;;;16.27;;
42296;SDS011;28985;47.456;19.016;2022-10-16T11:11:35;18.50;;;17.05;;
42296;SDS011;28985;47.456;19.016;2022-10-16T11:14:19;15.95;;;14.75;;
42296;SDS011;28985;47.456;19.016;2022-10-16T11:16:53;11.25;;;10.75;;
42296;SDS011;28985;47.456;19.016;2022-10-16T11:22:23;11.45;;;11.00;;
42296;SDS011;28985;47.456;19.016;2022-10-16T11:24:55;12.52;;;11.93;;
42296;SDS011;28985;47.456;19.016;2022-10-16T11:30:02;12.00;;;11.38;;
42296;SDS011;28985;47.456;19.016;2022-10-16T11:32:41;10.90;;;10.40;;
42296;SDS011;28985;47.456;19.016;2022-10-16T11:35:17;11.13;;;10.52;;
42296;SDS011;28985;47.456;19.016;2022-10-16T11:37:50;14.15;;;13.15;;
42296;SDS011;28985;47.456;19.016;2022-10-16T11:40:28;14.98;;;13.95;;
42296;SDS011;28985;47.456;19.016;2022-10-16T11:43:21;15.20;;;14.10;;
42296;SDS011;28985;47.456;19.016;2022-10-16T11:46:02;12.40;;;11.90;;
42296;SDS011;28985;47.456;19.016;2022-10-16T11:48:39;18.27;;;16.77;;
42296;SDS011;28985;47.456;19.016;2022-10-16T11:56:51;10.88;;;10.38;;
42296;SDS011;28985;47.456;19.016;2022-10-16T12:01:58;13.00;;;12.35;;
42296;SDS011;28985;47.456;19.016;2022-10-16T12:04:35;12.00;;;11.30;;
42296;SDS011;28985;47.456;19.016;2022-10-16T12:07:27;13.65;;;12.95;;
42296;SDS011;28985;47.456;19.016;2022-10-16T12:10:22;14.45;;;13.63;;
42296;SDS011;28985;47.456;19.016;2022-10-16T12:12:53;16.42;;;15.40;;
42296;SDS011;28985;47.456;19.016;2022-10-16T12:15:27;16.95;;;15.57;;
42296;SDS011;28985;47.456;19.016;2022-10-16T12:18:22;14.00;;;13.05;;
42296;SDS011;28985;47.456;19.016;2022-10-16T12:20:57;12.70;;;12.10;;
42296;SDS011;28985;47.456;19.016;2022-10-16T12:23:46;15.10;;;14.27;;
42296;SDS011;28985;47.456;19.016;2022-10-16T12:26:14;13.25;;;12.65;;
42296;SDS011;28985;47.456;19.016;2022-10-16T12:28:50;12.60;;;11.98;;
42296;SDS011;28985;47.456;19.016;2022-10-16T12:31:18;12.77;;;12.32;;
42296;SDS011;28985;47.456;19.016;2022-10-16T12:33:58;12.73;;;12.13;;
42296;SDS011;28985;47.456;19.016;2022-10-16T12:36:28;12.67;;;12.17;;
42296;SDS011;28985;47.456;19.016;2022-10-16T12:38:57;13.35;;;12.75;;
42296;SDS011;28985;47.456;19.016;2022-10-16T12:43:59;13.45;;;12.80;;
42296;SDS011;28985;47.456;19.016;2022-10-16T12:51:40;13.15;;;12.65;;
42296;SDS011;28985;47.456;19.016;2022-10-16T12:54:18;13.07;;;12.48;;
42296;SDS011;28985;47.456;19.016;2022-10-16T12:59:37;13.32;;;12.75;;
42296;SDS011;28985;47.456;19.016;2022-10-16T13:05:03;13.65;;;13.05;;
42296;SDS011;28985;47.456;19.016;2022-10-16T13:26:39;13.23;;;12.73;;
42296;SDS011;28985;47.456;19.016;2022-10-16T13:29:09;12.32;;;11.82;;
42296;SDS011;28985;47.456;19.016;2022-10-16T13:31:37;13.57;;;12.95;;
42296;SDS011;28985;47.456;19.016;2022-10-16T13:34:05;12.32;;;11.82;;
42296;SDS011;28985;47.456;19.016;2022-10-16T13:36:47;12.23;;;11.73;;
42296;SDS011;28985;47.456;19.016;2022-10-16T13:39:23;13.15;;;12.45;;
42296;SDS011;28985;47.456;19.016;2022-10-16T13:44:52;13.02;;;12.32;;
42296;SDS011;28985;47.456;19.016;2022-10-16T13:47:21;12.88;;;12.27;;
42296;SDS011;28985;47.456;19.016;2022-10-16T13:50:04;12.18;;;11.77;;
42296;SDS011;28985;47.456;19.016;2022-10-16T13:52:32;12.95;;;12.45;;
42296;SDS011;28985;47.456;19.016;2022-10-16T13:54:59;12.60;;;12.10;;
42296;SDS011;28985;47.456;19.016;2022-10-16T13:57:27;14.32;;;13.63;;
42296;SDS011;28985;47.456;19.016;2022-10-16T13:59:54;13.20;;;12.65;;
42296;SDS011;28985;47.456;19.016;2022-10-16T14:02:31;14.45;;;13.77;;
42296;SDS011;28985;47.456;19.016;2022-10-16T14:05:02;15.10;;;14.35;;
42296;SDS011;28985;47.456;19.016;2022-10-16T14:07:31;14.35;;;13.85;;
42296;SDS011;28985;47.456;19.016;2022-10-16T14:10:01;15.10;;;14.15;;
42296;SDS011;28985;47.456;19.016;2022-10-16T14:12:31;14.18;;;13.57;;
42296;SDS011;28985;47.456;19.016;2022-10-16T14:14:59;13.07;;;12.57;;
42296;SDS011;28985;47.456;19.016;2022-10-16T14:19:59;13.43;;;12.73;;
42296;SDS011;28985;47.456;19.016;2022-10-16T14:25:20;13.27;;;12.73;;
42296;SDS011;28985;47.456;19.016;2022-10-16T14:28:02;11.90;;;11.50;;
42296;SDS011;28985;47.456;19.016;2022-10-16T14:33:50;12.00;;;11.55;;
42296;SDS011;28985;47.456;19.016;2022-10-16T14:36:17;11.80;;;11.30;;
42296;SDS011;28985;47.456;19.016;2022-10-16T14:39:04;11.60;;;10.93;;
42296;SDS011;28985;47.456;19.016;2022-10-16T14:41:43;11.77;;;11.30;;
42296;SDS011;28985;47.456;19.016;2022-10-16T14:44:12;12.35;;;11.85;;
42296;SDS011;28985;47.456;19.016;2022-10-16T14:46:40;11.88;;;11.40;;
42296;SDS011;28985;47.456;19.016;2022-10-16T14:51:35;12.38;;;11.82;;
42296;SDS011;28985;47.456;19.016;2022-10-16T14:54:03;13.25;;;12.65;;
42296;SDS011;28985;47.456;19.016;2022-10-16T14:56:33;13.80;;;13.10;;
42296;SDS011;28985;47.456;19.016;2022-10-16T14:59:12;13.32;;;12.60;;
42296;SDS011;28985;47.456;19.016;2022-10-16T15:01:51;12.93;;;12.43;;
42296;SDS011;28985;47.456;19.016;2022-10-16T15:04:18;12.77;;;12.18;;
42296;SDS011;28985;47.456;19.016;2022-10-16T15:06:44;12.85;;;12.35;;
42296;SDS011;28985;47.456;19.016;2022-10-16T15:09:11;12.77;;;11.95;;
42296;SDS011;28985;47.456;19.016;2022-10-16T15:11:38;12.75;;;12.25;;
42296;SDS011;28985;47.456;19.016;2022-10-16T15:14:04;12.13;;;11.63;;
42296;SDS011;28985;47.456;19.016;2022-10-16T15:16:31;12.75;;;12.25;;
42296;SDS011;28985;47.456;19.016;2022-10-16T15:18:58;13.38;;;12.63;;
42296;SDS011;28985;47.456;19.016;2022-10-16T15:21:25;13.10;;;12.35;;
42296;SDS011;28985;47.456;19.016;2022-10-16T15:23:54;14.65;;;14.05;;
42296;SDS011;28985;47.456;19.016;2022-10-16T15:26:23;15.43;;;14.82;;
42296;SDS011;28985;47.456;19.016;2022-10-16T15:28:50;17.90;;;16.98;;
42296;SDS011;28985;47.456;19.016;2022-10-16T15:31:17;16.60;;;16.00;;
42296;SDS011;28985;47.456;19.016;2022-10-16T15:33:44;18.48;;;17.77;;
42296;SDS011;28985;47.456;19.016;2022-10-16T15:36:17;19.73;;;18.67;;
42296;SDS011;28985;47.456;19.016;2022-10-16T15:38:44;21.13;;;20.23;;
42296;SDS011;28985;47.456;19.016;2022-10-16T15:41:11;22.23;;;21.42;;
42296;SDS011;28985;47.456;19.016;2022-10-16T15:43:38;24.42;;;23.48;;
42296;SDS011;28985;47.456;19.016;2022-10-16T15:46:05;27.10;;;26.00;;
42296;SDS011;28985;47.456;19.016;2022-10-16T15:48:34;28.63;;;27.33;;
42296;SDS011;28985;47.456;19.016;2022-10-16T15:51:02;31.35;;;29.95;;
42296;SDS011;28985;47.456;19.016;2022-10-16T15:53:31;32.17;;;30.98;;
42296;SDS011;28985;47.456;19.016;2022-10-16T15:56:00;33.55;;;32.05;;
42296;SDS011;28985;47.456;19.016;2022-10-16T15:58:28;34.20;;;32.80;;
42296;SDS011;28985;47.456;19.016;2022-10-16T16:00:56;35.28;;;33.88;;
42296;SDS011;28985;47.456;19.016;2022-10-16T16:03:27;32.17;;;30.77;;
42296;SDS011;28985;47.456;19.016;2022-10-16T16:05:54;28.77;;;27.42;;
42296;SDS011;28985;47.456;19.016;2022-10-16T16:08:21;28.65;;;26.73;;
42296;SDS011;28985;47.456;19.016;2022-10-16T16:10:58;27.25;;;25.73;;
42296;SDS011;28985;47.456;19.016;2022-10-16T16:13:28;25.77;;;24.38;;
42296;SDS011;28985;47.456;19.016;2022-10-16T16:15:55;24.55;;;22.73;;
42296;SDS011;28985;47.456;19.016;2022-10-16T16:18:22;23.60;;;22.40;;
42296;SDS011;28985;47.456;19.016;2022-10-16T16:20:50;23.85;;;22.50;;
42296;SDS011;28985;47.456;19.016;2022-10-16T16:23:17;21.83;;;20.40;;
42296;SDS011;28985;47.456;19.016;2022-10-16T16:25:45;22.88;;;21.58;;
42296;SDS011;28985;47.456;19.016;2022-10-16T16:28:11;20.90;;;19.92;;
42296;SDS011;28985;47.456;19.016;2022-10-16T16:30:40;20.30;;;19.40;;
42296;SDS011;28985;47.456;19.016;2022-10-16T16:33:07;21.48;;;20.38;;
42296;SDS011;28985;47.456;19.016;2022-10-16T16:35:33;20.42;;;19.35;;
42296;SDS011;28985;47.456;19.016;2022-10-16T16:38:00;19.48;;;18.48;;
42296;SDS011;28985;47.456;19.016;2022-10-16T16:40:27;19.45;;;18.30;;
42296;SDS011;28985;47.456;19.016;2022-10-16T16:42:53;19.73;;;18.73;;